Time;durP1;ratioP1;P1;durP2;ratioP2;P2;SDS_P1;SDS_P2;PMS_P1;PMS_P2;Temp;Humidity;BMP_temperature;BMP_pressure;BME280_temperature;BME280_humidity;BME280_pressure;Samples;Min_cycle;Max_cycle;Signal;HPM_P1;HPM_P2
2021/05/01 00:01:12;;;;;;;16.27;11.28;;;;;;;8.72;67.16;99927.06;1535950;93;21249;-76
2021/05/01 00:03:38;;;;;;;15.23;11.25;;;;;;;8.72;67.41;99938.04;1535825;93;21321;-76
2021/05/01 00:06:05;;;;;;;13.70;9.78;;;;;;;8.73;67.62;99943.69;1535544;93;21224;-76
2021/05/01 00:08:30;;;;;;;14.50;9.93;;;;;;;8.70;67.38;99940.80;1535499;93;21245;-76
2021/05/01 00:11:02;;;;;;;15.40;10.40;;;;;;;8.69;67.09;99944.38;1535102;93;21720;-76
2021/05/01 00:13:30;;;;;;;14.20;9.73;;;;;;;8.67;67.08;99933.95;1535355;93;21648;-76
2021/05/01 00:15:56;;;;;;;15.23;10.10;;;;;;;8.69;67.45;99940.44;1535960;93;21649;-76
2021/05/01 00:18:22;;;;;;;14.50;10.18;;;;;;;8.69;67.25;99939.95;1535821;93;21248;-76
2021/05/01 00:20:48;;;;;;;16.87;10.40;;;;;;;8.69;67.67;99945.70;1535924;93;21183;-76
2021/05/01 00:23:14;;;;;;;16.00;10.78;;;;;;;8.68;67.47;99942.68;1535896;93;21190;-76
2021/05/01 00:25:40;;;;;;;12.73;9.80;;;;;;;8.67;67.33;99935.27;1535942;93;21356;-76
2021/05/01 00:28:06;;;;;;;18.32;10.90;;;;;;;8.66;67.41;99936.23;1535897;93;21657;-76
2021/05/01 00:30:32;;;;;;;14.58;10.03;;;;;;;8.64;67.31;99935.48;1535979;93;21795;-76
2021/05/01 00:32:58;;;;;;;14.98;10.93;;;;;;;8.52;67.41;99912.67;1535901;93;21143;-76
2021/05/01 00:35:27;;;;;;;15.00;11.35;;;;;;;8.63;67.50;99925.92;1535898;93;21246;-76
2021/05/01 00:37:53;;;;;;;15.78;10.35;;;;;;;8.62;67.63;99924.70;1536043;93;21634;-76
2021/05/01 00:40:19;;;;;;;12.85;9.68;;;;;;;8.61;67.58;99923.02;1536084;93;21329;-76
2021/05/01 00:42:46;;;;;;;13.83;10.23;;;;;;;8.60;67.93;99923.50;1535657;93;21638;-76
2021/05/01 00:45:12;;;;;;;16.97;11.05;;;;;;;8.60;68.18;99929.25;1536154;93;21276;-76
2021/05/01 00:47:38;;;;;;;12.23;9.78;;;;;;;8.59;68.07;99934.98;1535892;93;21194;-76
2021/05/01 00:50:06;;;;;;;14.03;9.68;;;;;;;8.60;68.14;99943.71;1535755;93;21245;-76
2021/05/01 00:52:34;;;;;;;15.55;10.32;;;;;;;8.60;68.26;99935.34;1535853;93;21684;-76
2021/05/01 00:55:04;;;;;;;13.98;9.93;;;;;;;8.60;68.13;99938.45;1536311;93;21221;-76
2021/05/01 00:57:30;;;;;;;13.55;9.98;;;;;;;8.59;67.95;99940.24;1536121;93;21233;-76
2021/05/01 00:59:56;;;;;;;14.13;10.05;;;;;;;8.58;68.13;99937.23;1536306;93;21609;-76
2021/05/01 01:02:29;;;;;;;15.83;10.38;;;;;;;8.59;68.19;99938.09;1536098;93;21232;-76
2021/05/01 01:04:55;;;;;;;13.80;10.38;;;;;;;8.61;68.26;99938.80;1536302;93;21198;-76
2021/05/01 01:07:23;;;;;;;14.73;10.85;;;;;;;8.62;68.36;99936.09;1536095;93;21239;-76
2021/05/01 01:09:50;;;;;;;16.07;10.68;;;;;;;8.63;68.22;99925.09;1536234;93;21227;-76
2021/05/01 01:12:17;;;;;;;15.08;10.45;;;;;;;8.62;68.20;99920.30;1536434;93;21621;-76
2021/05/01 01:14:45;;;;;;;16.45;11.97;;;;;;;8.63;68.32;99922.45;1536550;93;21620;-76
2021/05/01 01:17:11;;;;;;;14.87;11.10;;;;;;;8.63;68.45;99924.61;1536443;93;21565;-76
2021/05/01 01:19:39;;;;;;;15.63;10.30;;;;;;;8.62;68.52;99925.56;1536589;93;21203;-76
2021/05/01 01:22:18;;;;;;;15.58;11.65;;;;;;;8.62;68.71;99920.75;1536246;93;21246;-76
2021/05/01 01:24:44;;;;;;;17.20;11.68;;;;;;;8.63;68.34;99914.56;1536438;93;21352;-76
2021/05/01 01:27:11;;;;;;;18.02;11.97;;;;;;;8.63;68.33;99898.78;1536041;93;21182;-76
2021/05/01 01:29:40;;;;;;;17.85;12.45;;;;;;;8.63;68.31;99901.41;1536636;93;21163;-76
2021/05/01 01:32:08;;;;;;;18.10;12.88;;;;;;;8.62;68.29;99915.05;1536358;93;21360;-76
2021/05/01 01:34:34;;;;;;;21.42;14.13;;;;;;;8.61;68.75;99914.66;1536619;93;21218;-76
2021/05/01 01:37:01;;;;;;;17.37;13.13;;;;;;;8.62;68.63;99927.33;1536349;93;21190;-76
2021/05/01 01:39:27;;;;;;;17.42;12.50;;;;;;;8.62;68.54;99929.95;1536671;93;21217;-76
2021/05/01 01:41:53;;;;;;;20.08;13.55;;;;;;;8.63;68.61;99922.45;1536399;93;21649;-76
2021/05/01 01:44:19;;;;;;;19.98;13.05;;;;;;;8.63;68.86;99924.61;1536428;93;21225;-76
2021/05/01 01:46:45;;;;;;;20.25;14.90;;;;;;;8.64;68.82;99928.07;1536323;93;21293;-76
2021/05/01 01:49:11;;;;;;;20.10;13.28;;;;;;;8.63;68.91;99922.45;1536494;93;21155;-76
2021/05/01 01:51:38;;;;;;;18.95;14.58;;;;;;;8.61;68.94;99924.34;1536366;93;21277;-76
2021/05/01 01:54:05;;;;;;;20.00;13.85;;;;;;;8.61;69.36;99927.80;1536400;93;21218;-76
2021/05/01 01:56:36;;;;;;;18.10;13.35;;;;;;;8.59;69.26;99922.31;1536465;93;21174;-76
2021/05/01 01:59:04;;;;;;;18.98;14.28;;;;;;;8.57;69.03;99912.36;1536538;93;21266;-76
2021/05/01 02:01:33;;;;;;;17.02;12.80;;;;;;;8.57;69.09;99897.90;1536486;93;21640;-76
2021/05/01 02:03:59;;;;;;;18.55;13.10;;;;;;;8.58;69.35;99910.92;1536554;93;21597;-76
2021/05/01 02:06:25;;;;;;;20.60;14.58;;;;;;;8.57;69.31;99915.83;1536468;93;21210;-76
2021/05/01 02:08:51;;;;;;;19.50;14.60;;;;;;;8.56;69.47;99906.27;1536348;93;21179;-76
2021/05/01 02:11:18;;;;;;;20.30;14.38;;;;;;;8.54;69.47;99901.58;1536401;93;21777;-76
2021/05/01 02:13:45;;;;;;;21.87;15.13;;;;;;;8.54;69.53;99909.95;1536532;93;21167;-76
2021/05/01 02:16:12;;;;;;;20.50;15.03;;;;;;;8.51;69.69;99904.91;1536368;93;21246;-76
2021/05/01 02:18:38;;;;;;;22.02;14.90;;;;;;;8.50;69.98;99902.75;1536325;93;21174;-76
2021/05/01 02:21:04;;;;;;;20.82;13.70;;;;;;;8.49;70.10;99898.90;1536311;93;21795;-76
2021/05/01 02:23:30;;;;;;;22.35;15.00;;;;;;;8.47;70.27;99892.45;1536404;93;21211;-76
2021/05/01 02:25:57;;;;;;;21.70;14.63;;;;;;;8.44;70.22;99890.88;1536501;93;21183;-76
2021/05/01 02:28:23;;;;;;;20.77;14.73;;;;;;;8.44;70.65;99883.47;1536511;93;21203;-76
2021/05/01 02:30:49;;;;;;;20.88;14.68;;;;;;;8.42;70.83;99887.98;1536471;93;21163;-76
2021/05/01 02:33:14;;;;;;;21.95;14.90;;;;;;;8.42;70.62;99885.34;1536327;93;21187;-76
2021/05/01 02:35:42;;;;;;;21.05;15.05;;;;;;;8.40;70.71;99893.84;1536588;93;21211;-76
2021/05/01 02:38:09;;;;;;;22.30;16.55;;;;;;;8.40;70.89;99888.58;1536553;93;21388;-76
2021/05/01 02:40:35;;;;;;;22.05;15.90;;;;;;;8.40;71.10;99882.84;1536057;93;21194;-76
2021/05/01 02:43:08;;;;;;;21.77;14.80;;;;;;;8.40;71.04;99869.70;1537481;93;21150;-76
2021/05/01 02:45:34;;;;;;;;;;;;;;;8.40;71.11;99865.75;1543711;92;21147;-76
2021/05/01 02:48:02;;;;;;;22.20;14.53;;;;;;;8.39;71.58;99873.73;1536809;93;20302;-76
2021/05/01 02:50:28;;;;;;;26.80;17.80;;;;;;;8.34;71.56;99862.20;1536493;93;21230;-76
2021/05/01 02:52:54;;;;;;;21.10;15.90;;;;;;;8.33;71.79;99864.95;1546109;92;21234;-76
2021/05/01 02:55:20;;;;;;;29.10;19.35;;;;;;;8.30;71.84;99852.86;1547840;92;21786;-76
2021/05/01 02:57:48;;;;;;;27.50;18.10;;;;;;;8.28;71.90;99849.48;1547825;92;21240;-76
2021/05/01 03:00:19;;;;;;;27.17;20.15;;;;;;;8.27;71.89;99853.08;1547886;92;21218;-76
2021/05/01 03:02:45;;;;;;;27.25;20.48;;;;;;;8.28;72.14;99861.31;1545463;92;21205;-76
2021/05/01 03:05:13;;;;;;;27.27;19.67;;;;;;;8.28;72.12;99863.95;1536351;93;21199;-76
2021/05/01 03:07:40;;;;;;;28.07;20.52;;;;;;;8.26;72.34;99867.17;1536088;93;21175;-76
2021/05/01 03:10:11;;;;;;;27.75;20.10;;;;;;;8.25;72.30;99856.75;1536536;93;21218;-76
2021/05/01 03:12:37;;;;;;;29.87;19.87;;;;;;;8.23;72.16;99849.83;1535601;93;21897;-76
2021/05/01 03:15:06;;;;;;;29.72;20.95;;;;;;;8.22;72.13;99848.13;1536524;93;21263;-76
2021/05/01 03:17:32;;;;;;;25.90;18.57;;;;;;;8.22;72.15;99848.60;1536355;93;21636;-76
2021/05/01 03:19:58;;;;;;;30.48;20.72;;;;;;;8.20;72.43;99846.58;1536548;93;21309;-76
2021/05/01 03:22:25;;;;;;;30.05;19.60;;;;;;;8.18;72.62;99848.46;1536362;93;21190;-76
2021/05/01 03:24:53;;;;;;;26.57;19.10;;;;;;;8.17;72.63;99844.16;1536447;93;21229;-76
2021/05/01 03:27:20;;;;;;;29.55;20.12;;;;;;;8.14;72.83;99841.27;1536095;93;21648;-76
2021/05/01 03:29:46;;;;;;;27.85;20.35;;;;;;;8.14;73.12;99852.26;1536158;93;21210;-75
2021/05/01 03:32:11;;;;;;;27.82;20.05;;;;;;;8.12;73.54;99867.28;1536096;93;21317;-76
2021/05/01 03:34:37;;;;;;;29.18;19.62;;;;;;;8.11;73.78;99869.55;1536251;93;21321;-76
2021/05/01 03:37:03;;;;;;;29.85;20.08;;;;;;;8.11;73.91;99866.92;1535965;93;21767;-76
2021/05/01 03:39:30;;;;;;;28.98;19.85;;;;;;;7.93;73.71;99846.69;1536448;93;21179;-76
2021/05/01 03:41:56;;;;;;;31.07;23.05;;;;;;;8.12;73.68;99886.99;1536202;93;21383;-76
2021/05/01 03:44:22;;;;;;;32.42;24.12;;;;;;;8.12;74.26;99886.99;1536239;93;21183;-76
2021/05/01 03:46:48;;;;;;;32.70;23.60;;;;;;;8.12;74.50;99894.87;1536120;93;21336;-76
2021/05/01 03:49:14;;;;;;;30.05;23.15;;;;;;;8.12;74.89;99894.40;1536497;93;21239;-76
2021/05/01 03:51:39;;;;;;;30.05;22.22;;;;;;;8.11;74.88;99891.89;1536428;93;21346;-76
2021/05/01 03:54:06;;;;;;;28.55;21.17;;;;;;;8.09;74.69;99880.16;1536558;93;21691;-76
2021/05/01 03:56:33;;;;;;;24.82;19.85;;;;;;;8.10;74.46;99883.65;1536415;93;21143;-76
2021/05/01 03:58:59;;;;;;;29.72;19.50;;;;;;;8.10;74.66;99885.80;1536422;93;21197;-76
2021/05/01 04:01:26;;;;;;;27.25;20.10;;;;;;;8.12;74.65;99897.50;1536426;93;21218;-76
2021/05/01 04:03:52;;;;;;;28.25;20.25;;;;;;;8.10;74.86;99898.94;1536453;93;21624;-76
2021/05/01 04:06:18;;;;;;;24.00;18.23;;;;;;;8.12;74.67;99910.64;1536465;93;21198;-76
2021/05/01 04:08:44;;;;;;;32.85;23.35;;;;;;;8.13;74.64;99914.97;1536455;93;21213;-76
2021/05/01 04:11:11;;;;;;;33.18;25.88;;;;;;;8.14;75.29;99917.48;1536566;93;21619;-76
2021/05/01 04:13:46;;;;;;;26.37;20.00;;;;;;;8.11;75.54;99914.23;1544473;92;21175;-75
2021/05/01 04:16:07;;;;;;;25.82;18.62;;;;;;;8.07;75.43;99906.20;1555202;92;21360;-76
2021/05/01 04:18:33;;;;;;;27.82;18.23;;;;;;;8.04;75.25;99903.30;1546442;91;21223;-76
2021/05/01 04:20:59;;;;;;;23.52;18.12;;;;;;;8.03;75.24;99902.94;1537735;93;21336;-76
2021/05/01 04:23:25;;;;;;;28.27;18.27;;;;;;;8.03;75.61;99893.74;1537670;93;21597;-76
2021/05/01 04:25:51;;;;;;;26.42;18.67;;;;;;;8.02;75.64;99890.72;1537409;93;21700;-76
2021/05/01 04:28:17;;;;;;;26.57;19.45;;;;;;;8.03;75.40;99891.11;1536572;93;21221;-76
2021/05/01 04:30:43;;;;;;;26.20;19.20;;;;;;;8.04;75.48;99891.95;1536666;93;21731;-76
2021/05/01 04:33:09;;;;;;;27.98;19.80;;;;;;;8.03;75.71;99889.80;1536924;93;21256;-76
2021/05/01 04:35:35;;;;;;;28.17;19.82;;;;;;;8.01;75.79;99891.69;1536481;93;21143;-77
2021/05/01 04:38:01;;;;;;;32.80;21.17;;;;;;;7.99;75.82;99898.38;1537623;93;21273;-77
2021/05/01 04:40:27;;;;;;;25.05;18.37;;;;;;;7.96;75.96;99900.34;1537805;93;21271;-77
2021/05/01 04:42:53;;;;;;;28.80;19.20;;;;;;;7.94;76.14;99903.09;1537676;93;21711;-77
2021/05/01 04:45:20;;;;;;;31.65;19.98;;;;;;;7.95;76.67;99903.92;1536251;93;21198;-77
2021/05/01 04:47:46;;;;;;;27.85;19.92;;;;;;;7.95;76.52;99903.92;1536644;93;21161;-79
2021/05/01 04:50:14;;;;;;;30.97;20.25;;;;;;;7.94;76.71;99908.34;1537827;93;21133;-79
2021/05/01 04:52:40;;;;;;;28.83;19.45;;;;;;;7.93;76.69;99905.80;1524745;93;21194;-79
2021/05/01 04:55:13;;;;;;;26.62;19.62;;;;;;;7.95;77.14;99910.49;1536623;93;21630;-80
2021/05/01 04:57:35;;;;;;;29.42;20.25;;;;;;;7.94;77.27;99916.70;1536825;92;21214;-80
2021/05/01 05:00:04;;;;;;;27.70;19.52;;;;;;;7.92;77.48;99913.33;1537189;93;21314;-81
2021/05/01 05:02:30;;;;;;;31.05;19.82;;;;;;;7.91;77.24;99905.09;1537108;93;21151;-81
2021/05/01 05:04:56;;;;;;;25.50;19.15;;;;;;;7.90;77.24;99899.47;1536598;93;21312;-81
2021/05/01 05:07:22;;;;;;;30.08;20.30;;;;;;;7.89;77.12;99900.39;1536749;93;21623;-81
2021/05/01 05:09:48;;;;;;;30.25;21.10;;;;;;;7.87;77.33;99901.83;1537698;93;21365;-81
2021/05/01 05:12:14;;;;;;;30.60;20.37;;;;;;;7.88;77.47;99902.66;1536836;93;21146;-81
2021/05/01 05:14:40;;;;;;;29.60;20.48;;;;;;;7.88;77.55;99900.88;1536625;93;21592;-81
2021/05/01 05:17:06;;;;;;;28.65;20.48;;;;;;;7.88;77.56;99894.78;1537010;93;21311;-81
2021/05/01 05:19:32;;;;;;;26.93;20.30;;;;;;;7.86;77.73;99886.98;1536594;93;21142;-81
2021/05/01 05:21:57;;;;;;;28.23;20.68;;;;;;;7.84;77.80;99883.64;1536260;93;21230;-81
2021/05/01 05:24:23;;;;;;;29.57;21.20;;;;;;;7.83;77.95;99880.66;1536717;93;21328;-81
2021/05/01 05:26:49;;;;;;;28.85;20.60;;;;;;;7.82;78.13;99877.64;1537590;93;21121;-81
2021/05/01 05:29:15;;;;;;;29.27;20.30;;;;;;;7.81;78.19;99875.14;1537911;93;21288;-81
2021/05/01 05:31:41;;;;;;;26.20;19.07;;;;;;;7.78;78.36;99872.23;1537026;93;21232;-81
2021/05/01 05:34:07;;;;;;;28.62;19.05;;;;;;;7.78;78.33;99877.49;1536584;93;21214;-81
2021/05/01 05:36:33;;;;;;;29.82;20.55;;;;;;;7.75;78.46;99872.45;1536597;93;21282;-81
2021/05/01 05:38:59;;;;;;;26.95;20.40;;;;;;;7.74;78.54;99876.86;1536536;93;21217;-81
2021/05/01 05:41:24;;;;;;;28.67;20.75;;;;;;;7.73;78.63;99876.95;1536421;93;21308;-81
2021/05/01 05:43:51;;;;;;;30.82;20.35;;;;;;;7.72;78.75;99888.41;1537789;93;21199;-81
2021/05/01 05:46:17;;;;;;;34.70;22.50;;;;;;;7.73;78.78;99899.27;1537337;93;21348;-81
2021/05/01 05:48:44;;;;;;;34.78;23.25;;;;;;;7.59;78.80;99879.20;1536493;93;21618;-81
2021/05/01 05:51:10;;;;;;;31.02;22.82;;;;;;;7.71;79.09;99896.77;1536478;93;21154;-81
2021/05/01 05:53:36;;;;;;;30.65;20.92;;;;;;;7.72;79.06;99897.60;1536504;93;21709;-81
2021/05/01 05:56:02;;;;;;;29.92;20.82;;;;;;;7.71;79.23;99902.50;1536739;93;21588;-81
2021/05/01 05:58:29;;;;;;;32.17;22.32;;;;;;;7.71;79.36;99895.45;1537728;93;21197;-81
2021/05/01 06:00:54;;;;;;;28.32;21.70;;;;;;;7.71;79.50;99900.70;1537453;93;21380;-81
2021/05/01 06:03:24;;;;;;;28.73;21.05;;;;;;;7.71;79.47;99898.56;1536344;93;21119;-81
2021/05/01 06:05:58;;;;;;;28.35;21.62;;;;;;;7.72;79.72;99902.37;1536541;93;21217;-81
2021/05/01 06:08:25;;;;;;;29.67;22.37;;;;;;;7.73;79.68;99895.34;1537712;93;21181;-81
2021/05/01 06:10:51;;;;;;;28.42;20.80;;;;;;;7.74;79.72;99888.69;1537597;93;21201;-81
2021/05/01 06:13:20;;;;;;;29.65;20.82;;;;;;;7.74;79.89;99887.37;1536353;93;21229;-81
2021/05/01 06:15:47;;;;;;;30.80;21.48;;;;;;;7.76;80.13;99888.56;1537597;93;21341;-81
2021/05/01 06:18:19;;;;;;;31.82;21.60;;;;;;;7.75;80.09;99898.71;1537688;93;21209;-81
2021/05/01 06:20:45;;;;;;;30.15;22.20;;;;;;;7.77;80.21;99905.19;1537769;91;21217;-81
2021/05/01 06:23:11;;;;;;;28.35;20.62;;;;;;;7.80;80.29;99910.20;1537439;93;21133;-81
2021/05/01 06:25:37;;;;;;;29.48;21.95;;;;;;;7.84;80.25;99909.91;1537662;93;22562;-81
2021/05/01 06:28:05;;;;;;;32.50;22.40;;;;;;;7.87;80.42;99904.93;1537574;93;21193;-81
2021/05/01 06:30:32;;;;;;;30.95;22.20;;;;;;;7.90;80.34;99898.16;1537735;93;21134;-81
2021/05/01 06:33:00;;;;;;;30.80;21.60;;;;;;;7.93;80.31;99897.47;1536883;93;21214;-80
2021/05/01 06:35:27;;;;;;;29.92;20.65;;;;;;;7.97;80.44;99904.19;1536419;93;21243;-80
2021/05/01 06:37:53;;;;;;;28.62;20.55;;;;;;;7.99;80.35;99912.82;1536342;93;21233;-80
2021/05/01 06:40:24;;;;;;;28.47;21.12;;;;;;;8.01;80.48;99910.55;1514730;95;21561;-80
2021/05/01 06:43:01;;;;;;;29.00;20.95;;;;;;;8.02;80.37;99914.38;1530864;93;21381;-80
2021/05/01 06:45:28;;;;;;;28.23;20.88;;;;;;;8.03;80.41;99911.27;1536477;93;21223;-80
2021/05/01 06:47:58;;;;;;;30.88;21.80;;;;;;;8.04;80.24;99911.18;1536384;93;21187;-80
2021/05/01 06:50:27;;;;;;;28.40;20.85;;;;;;;8.05;80.49;99910.22;1536193;93;21151;-81
2021/05/01 06:52:53;;;;;;;28.73;21.80;;;;;;;8.05;80.51;99914.17;1536341;93;22364;-81
2021/05/01 06:55:22;;;;;;;31.73;21.80;;;;;;;8.07;80.55;99916.70;1536630;93;21617;-81
2021/05/01 06:57:51;;;;;;;29.85;21.60;;;;;;;8.09;80.36;99920.88;1513599;93;21123;-81
2021/05/01 07:00:21;;;;;;;30.02;20.97;;;;;;;8.12;80.41;99932.98;1536435;93;21174;-81
2021/05/01 07:02:50;;;;;;;29.30;20.48;;;;;;;8.13;80.86;99925.48;1537070;93;21134;-81
2021/05/01 07:05:20;;;;;;;30.43;22.95;;;;;;;8.15;80.49;99920.95;1537757;93;21247;-81
2021/05/01 07:07:47;;;;;;;29.07;20.82;;;;;;;8.15;80.63;99923.58;1537551;93;21208;-81
2021/05/01 07:10:15;;;;;;;28.57;21.02;;;;;;;8.16;80.65;99915.60;1536766;93;21766;-81
2021/05/01 07:12:43;;;;;;;28.67;21.00;;;;;;;8.17;80.77;99921.70;1535854;93;21199;-81
2021/05/01 07:15:18;;;;;;;28.60;21.73;;;;;;;8.17;80.88;99922.53;1535992;93;21229;-80
2021/05/01 07:17:48;;;;;;;28.38;21.05;;;;;;;8.19;80.97;99923.28;1536106;93;21407;-81
2021/05/01 07:20:14;;;;;;;27.10;20.17;;;;;;;8.21;81.02;99921.84;1536271;93;21745;-81
2021/05/01 07:22:41;;;;;;;30.72;20.82;;;;;;;8.25;81.14;99916.73;1537247;93;21177;-81
2021/05/01 07:25:11;;;;;;;28.98;19.80;;;;;;;8.29;80.99;99919.98;1553327;91;21243;-81
2021/05/01 07:27:58;;;;;;;25.92;20.37;;;;;;;8.34;81.34;99921.36;1536201;93;21205;-81
2021/05/01 07:30:27;;;;;;;27.15;19.85;;;;;;;8.36;80.95;99919.47;1536922;93;21173;-81
2021/05/01 07:33:03;;;;;;;27.85;19.87;;;;;;;8.40;81.15;99910.92;1537076;93;21182;-82
2021/05/01 07:35:31;;;;;;;28.55;20.60;;;;;;;8.42;81.24;99908.56;1531431;92;21261;-80
2021/05/01 07:37:58;;;;;;;28.62;21.05;;;;;;;8.46;81.21;99915.77;1532023;93;21372;-80
2021/05/01 07:40:30;;;;;;;28.85;21.25;;;;;;;8.48;81.18;99919.10;1537288;93;21253;-80
2021/05/01 07:42:58;;;;;;;30.77;21.80;;;;;;;8.52;81.38;99926.30;1536483;93;21214;-80
2021/05/01 07:45:24;;;;;;;25.82;19.15;;;;;;;8.56;81.58;99927.31;1531997;93;21194;-80
2021/05/01 07:47:55;;;;;;;27.37;20.62;;;;;;;8.61;81.35;99930.91;1532277;94;21161;-80
2021/05/01 07:50:25;;;;;;;27.13;19.37;;;;;;;8.67;81.43;99939.69;1531663;94;22466;-81
2021/05/01 07:52:53;;;;;;;25.88;19.80;;;;;;;8.71;81.33;99939.00;1518314;93;21203;-80
2021/05/01 07:55:20;;;;;;;28.15;21.85;;;;;;;8.73;81.06;99933.16;1534357;93;21167;-80
2021/05/01 07:57:47;;;;;;;34.48;25.52;;;;;;;8.77;81.13;99934.63;1535962;93;21344;-80
2021/05/01 08:00:16;;;;;;;30.25;21.50;;;;;;;8.83;81.44;99924.50;1535857;93;21183;-81
2021/05/01 08:02:42;;;;;;;26.60;20.20;;;;;;;8.90;81.46;99920.47;1541781;92;21853;-80
2021/05/01 08:05:10;;;;;;;27.30;18.85;;;;;;;8.96;81.16;99920.99;1557847;92;21629;-80
2021/05/01 08:07:37;;;;;;;29.45;19.87;;;;;;;8.97;80.92;99920.87;1562865;92;21224;-80
2021/05/01 08:10:05;;;;;;;26.93;19.23;;;;;;;9.02;81.27;99921.39;1559811;92;21115;-80
2021/05/01 08:12:31;;;;;;;25.68;18.65;;;;;;;9.09;80.73;99921.78;1562337;92;21194;-80
2021/05/01 08:14:57;;;;;;;26.12;18.90;;;;;;;9.10;80.29;99912.45;1555087;92;21226;-80
2021/05/01 08:17:23;;;;;;;24.18;18.87;;;;;;;9.11;80.54;99914.59;1559874;92;21513;-80
2021/05/01 08:19:52;;;;;;;20.62;16.30;;;;;;;9.16;81.11;99924.33;1561239;92;21194;-81
2021/05/01 08:22:18;;;;;;;22.25;16.42;;;;;;;9.19;80.40;99934.64;1560919;91;21158;-81
2021/05/01 08:24:44;;;;;;;22.30;16.52;;;;;;;9.22;80.42;99930.47;1545832;92;21624;-83
2021/05/01 08:27:10;;;;;;;19.95;16.07;;;;;;;9.26;80.22;99925.81;1558132;92;21222;-83
2021/05/01 08:29:36;;;;;;;24.05;18.77;;;;;;;9.31;80.65;99919.27;1561471;92;21340;-83
2021/05/01 08:32:02;;;;;;;22.73;18.02;;;;;;;9.40;80.60;99925.63;1563141;91;21139;-81
2021/05/01 08:34:28;;;;;;;19.02;15.05;;;;;;;9.46;80.25;99925.66;1558110;92;21154;-81
2021/05/01 08:36:54;;;;;;;17.20;14.65;;;;;;;9.49;79.50;99924.95;1562275;92;21327;-81
2021/05/01 08:39:20;;;;;;;23.40;16.52;;;;;;;9.51;79.44;99921.73;1553784;92;21668;-81
2021/05/01 08:41:47;;;;;;;22.48;16.65;;;;;;;9.59;79.60;99925.11;1563002;92;21205;-83
2021/05/01 08:44:13;;;;;;;19.15;14.07;;;;;;;9.68;79.48;99924.91;1563118;91;21146;-79
2021/05/01 08:46:39;;;;;;;22.40;15.08;;;;;;;9.75;79.30;99928.75;1563061;92;21861;-79
2021/05/01 08:49:09;;;;;;;19.95;15.18;;;;;;;9.83;79.52;99932.46;1563147;92;21182;-79
2021/05/01 08:51:37;;;;;;;22.65;17.00;;;;;;;9.91;78.90;99929.75;1562958;92;21644;-78
2021/05/01 08:54:03;;;;;;;23.35;17.52;;;;;;;9.94;78.66;99932.99;1563257;92;21767;-80
2021/05/01 08:56:29;;;;;;;21.12;16.35;;;;;;;10.05;79.78;99944.02;1562896;91;21175;-80
2021/05/01 08:59:00;;;;;;;18.30;14.33;;;;;;;10.15;78.54;99937.57;1563113;92;21589;-79
2021/05/01 09:01:27;;;;;;;20.32;15.53;;;;;;;10.16;77.01;99937.44;1562581;91;21178;-80
2021/05/01 09:03:53;;;;;;;20.52;15.25;;;;;;;10.14;77.26;99934.58;1563034;92;21266;-79
2021/05/01 09:06:22;;;;;;;19.50;14.90;;;;;;;10.17;77.57;99933.00;1559813;92;21556;-79
2021/05/01 09:09:00;;;;;;;20.40;15.75;;;;;;;10.19;77.09;99930.61;1538193;92;21352;-80
2021/05/01 09:11:43;;;;;;;22.90;16.02;;;;;;;10.23;77.28;99933.84;1482357;95;21242;-81
2021/05/01 09:14:30;;;;;;;22.25;15.88;;;;;;;10.24;76.89;99928.47;1497114;94;21391;-79
2021/05/01 09:17:07;;;;;;;19.23;14.35;;;;;;;10.26;77.55;99938.44;1497832;94;21925;-84
2021/05/01 09:19:39;;;;;;;18.85;15.25;;;;;;;10.29;77.48;99928.97;1493059;94;21551;-84
2021/05/01 09:22:12;;;;;;;20.60;14.75;;;;;;;10.30;77.07;99926.72;1477235;96;21360;-81
2021/05/01 09:24:40;;;;;;;18.37;14.45;;;;;;;10.31;77.04;99915.20;1492056;96;21257;-77
2021/05/01 09:27:07;;;;;;;19.05;13.20;;;;;;;10.30;76.43;99914.02;1492020;96;21264;-77
2021/05/01 09:29:37;;;;;;;16.60;12.82;;;;;;;10.29;76.08;99917.59;1482973;96;21403;-76
2021/05/01 09:32:06;;;;;;;20.85;12.93;;;;;;;10.30;76.37;99915.33;1535969;93;21197;-76
2021/05/01 09:34:44;;;;;;;17.67;13.72;;;;;;;10.31;75.87;99911.73;1536976;92;21344;-79
2021/05/01 09:37:12;;;;;;;18.40;14.93;;;;;;;10.33;75.68;99911.97;1537817;92;21175;-77
2021/05/01 09:39:59;;;;;;;18.27;13.65;;;;;;;10.40;76.55;99907.52;1533987;92;21256;-77
2021/05/01 09:42:30;;;;;;;18.23;14.10;;;;;;;10.40;75.87;99904.88;1550585;90;21201;-76
2021/05/01 09:45:21;;;;;;;20.12;15.20;;;;;;;10.42;75.92;99900.33;1546266;92;21230;-76
2021/05/01 09:47:53;;;;;;;19.23;15.00;;;;;;;10.45;76.08;99885.09;1543207;92;21228;-76
2021/05/01 09:50:25;;;;;;;19.50;15.10;;;;;;;10.55;76.78;99881.25;1534935;93;21499;-76
2021/05/01 09:53:06;;;;;;;20.08;15.48;;;;;;;10.59;75.70;99884.00;1540213;92;21334;-76
2021/05/01 09:55:54;;;;;;;18.30;15.40;;;;;;;10.59;74.81;99891.91;1535774;92;21222;-76
2021/05/01 09:58:30;;;;;;;19.82;14.65;;;;;;;10.58;75.82;99894.20;1544506;92;21210;-76
2021/05/01 10:01:17;;;;;;;18.00;14.60;;;;;;;10.62;75.74;99896.11;1539704;92;21356;-76
2021/05/01 10:03:43;;;;;;;18.55;15.05;;;;;;;10.66;75.69;99890.48;1540754;92;21818;-76
2021/05/01 10:06:14;;;;;;;19.05;14.15;;;;;;;10.72;75.14;99882.05;1515869;93;21225;-76
2021/05/01 10:08:42;;;;;;;18.48;15.15;;;;;;;10.74;74.97;99868.27;1534771;93;21214;-76
2021/05/01 10:11:13;;;;;;;18.98;15.20;;;;;;;10.82;75.66;99870.28;1537488;93;21211;-76
2021/05/01 10:13:54;;;;;;;19.67;14.15;;;;;;;10.88;75.31;99870.27;1547168;92;21782;-75
2021/05/01 10:16:22;;;;;;;17.15;14.65;;;;;;;10.96;75.40;99874.47;1545400;92;21222;-75
2021/05/01 10:19:12;;;;;;;17.85;13.83;;;;;;;11.02;75.06;99885.36;1551387;92;21532;-76
2021/05/01 10:21:41;;;;;;;19.37;15.58;;;;;;;11.01;75.33;99874.91;1532230;93;21352;-77
2021/05/01 10:24:09;;;;;;;18.90;14.50;;;;;;;11.19;75.32;99871.27;1539021;93;21264;-77
2021/05/01 10:26:48;;;;;;;18.98;14.30;;;;;;;11.27;74.90;99867.00;1532642;92;21260;-77
2021/05/01 10:29:33;;;;;;;16.82;13.80;;;;;;;11.32;74.95;99871.92;1482969;95;21211;-76
2021/05/01 10:31:58;;;;;;;17.32;13.75;;;;;;;11.37;74.49;99883.42;1506252;95;21369;-77
2021/05/01 10:34:26;;;;;;;15.53;13.55;;;;;;;11.42;74.43;99873.32;1556338;92;21183;-77
2021/05/01 10:37:00;;;;;;;17.70;13.38;;;;;;;11.48;74.06;99871.46;1544662;92;21275;-76
2021/05/01 10:39:26;;;;;;;16.12;14.45;;;;;;;11.54;73.89;99872.27;1498362;95;21210;-77
2021/05/01 10:41:59;;;;;;;18.00;13.88;;;;;;;11.62;74.50;99873.81;1479351;95;21214;-77
2021/05/01 10:44:26;;;;;;;17.65;14.23;;;;;;;11.72;73.95;99868.58;1512097;94;21615;-78
2021/05/01 10:47:09;;;;;;;19.95;15.68;;;;;;;11.83;74.14;99862.38;1510125;94;21241;-78
2021/05/01 10:49:35;;;;;;;17.07;14.45;;;;;;;11.91;72.77;99861.26;1503991;95;21286;-77
2021/05/01 10:52:18;;;;;;;15.08;12.65;;;;;;;11.96;73.37;99865.68;1505605;95;21660;-78
2021/05/01 10:55:01;;;;;;;16.80;14.70;;;;;;;12.09;72.28;99866.80;1523770;93;21377;-77
2021/05/01 10:57:30;;;;;;;18.12;15.20;;;;;;;12.15;72.68;99851.23;1504165;95;21823;-77
2021/05/01 11:00:08;;;;;;;20.82;15.15;;;;;;;12.36;72.83;99862.23;1497079;95;21626;-76
2021/05/01 11:02:37;;;;;;;17.05;14.23;;;;;;;12.48;72.82;99873.56;1533206;93;21210;-76
2021/05/01 11:05:11;;;;;;;18.02;15.93;;;;;;;12.51;70.94;99872.80;1533931;93;21221;-76
2021/05/01 11:07:57;;;;;;;19.98;17.82;;;;;;;12.51;72.00;99876.77;1522435;93;21343;-76
2021/05/01 11:10:23;;;;;;;21.02;17.00;;;;;;;12.57;71.97;99869.63;1525149;93;21687;-78
2021/05/01 11:12:57;;;;;;;21.42;17.85;;;;;;;12.65;71.54;99869.77;1533434;93;21191;-77
2021/05/01 11:15:25;;;;;;;24.50;18.45;;;;;;;12.75;71.17;99867.14;1530455;93;21248;-78
2021/05/01 11:18:01;;;;;;;20.50;17.77;;;;;;;12.83;71.75;99870.42;1532286;93;21195;-79
2021/05/01 11:20:30;;;;;;;20.65;16.82;;;;;;;12.90;71.78;99872.41;1533099;93;21219;-77
2021/05/01 11:22:56;;;;;;;19.70;16.95;;;;;;;13.00;72.12;99868.94;1527488;93;21672;-77
2021/05/01 11:25:23;;;;;;;20.05;16.65;;;;;;;13.10;71.49;99877.23;1532026;93;21332;-76
2021/05/01 11:27:52;;;;;;;19.65;16.57;;;;;;;13.18;70.90;99869.91;1532459;93;21202;-78
2021/05/01 11:30:24;;;;;;;21.02;17.07;;;;;;;13.21;70.51;99876.75;1527697;93;21190;-77